sensor_id;sensor_type;location;lat;lon;timestamp;temperature;humidity
66710;DHT22;53624;0.000;0.000;2023-07-16T00:02:08;22.20;99.20
66710;DHT22;53624;0.000;0.000;2023-07-16T00:04:36;22.10;99.30
66710;DHT22;53624;0.000;0.000;2023-07-16T00:07:04;22.10;98.90
66710;DHT22;53624;0.000;0.000;2023-07-16T00:09:32;22.00;99.00
66710;DHT22;53624;0.000;0.000;2023-07-16T00:12:00;22.00;99.20
66710;DHT22;53624;0.000;0.000;2023-07-16T00:14:27;22.10;98.80
66710;DHT22;53624;0.000;0.000;2023-07-16T00:16:55;22.10;98.60
66710;DHT22;53624;0.000;0.000;2023-07-16T00:19:22;22.20;98.30
66710;DHT22;53624;0.000;0.000;2023-07-16T00:21:50;21.90;98.60
66710;DHT22;53624;0.000;0.000;2023-07-16T00:24:17;22.00;99.10
66710;DHT22;53624;0.000;0.000;2023-07-16T00:26:46;22.10;99.90
66710;DHT22;53624;0.000;0.000;2023-07-16T00:29:13;21.90;99.90
66710;DHT22;53624;0.000;0.000;2023-07-16T00:31:41;21.90;99.90
66710;DHT22;53624;0.000;0.000;2023-07-16T00:34:08;21.80;99.90
66710;DHT22;53624;0.000;0.000;2023-07-16T00:36:36;21.70;99.90
66710;DHT22;53624;0.000;0.000;2023-07-16T00:39:03;21.70;99.90
66710;DHT22;53624;0.000;0.000;2023-07-16T00:41:31;21.70;99.90
66710;DHT22;53624;0.000;0.000;2023-07-16T00:43:59;21.70;99.90
66710;DHT22;53624;0.000;0.000;2023-07-16T00:46:27;21.70;99.90
66710;DHT22;53624;0.000;0.000;2023-07-16T00:48:55;21.60;99.80
66710;DHT22;53624;0.000;0.000;2023-07-16T00:51:23;21.60;99.80
66710;DHT22;53624;0.000;0.000;2023-07-16T00:53:51;21.60;99.20
66710;DHT22;53624;0.000;0.000;2023-07-16T00:56:19;21.60;99.10
66710;DHT22;53624;0.000;0.000;2023-07-16T00:58:46;21.80;98.90
66710;DHT22;53624;0.000;0.000;2023-07-16T01:01:15;21.70;97.90
66710;DHT22;53624;0.000;0.000;2023-07-16T01:03:43;21.80;98.20
66710;DHT22;53624;0.000;0.000;2023-07-16T01:06:11;21.70;98.80
66710;DHT22;53624;0.000;0.000;2023-07-16T01:08:41;21.70;98.50
66710;DHT22;53624;0.000;0.000;2023-07-16T01:11:09;21.60;98.70
66710;DHT22;53624;0.000;0.000;2023-07-16T01:13:37;21.60;98.90
66710;DHT22;53624;0.000;0.000;2023-07-16T01:16:07;21.60;98.30
66710;DHT22;53624;0.000;0.000;2023-07-16T01:18:46;21.60;98.50
66710;DHT22;53624;0.000;0.000;2023-07-16T01:21:13;21.60;98.70
66710;DHT22;53624;0.000;0.000;2023-07-16T01:23:50;21.60;98.60
66710;DHT22;53624;0.000;0.000;2023-07-16T01:26:26;21.60;98.80
66710;DHT22;53624;0.000;0.000;2023-07-16T01:31:48;21.60;98.70
66710;DHT22;53624;0.000;0.000;2023-07-16T01:34:17;21.50;98.00
66710;DHT22;53624;0.000;0.000;2023-07-16T01:36:45;21.60;97.50
66710;DHT22;53624;0.000;0.000;2023-07-16T01:39:13;21.50;96.50
66710;DHT22;53624;0.000;0.000;2023-07-16T01:41:41;21.60;96.10
66710;DHT22;53624;0.000;0.000;2023-07-16T01:44:08;21.80;95.90
66710;DHT22;53624;0.000;0.000;2023-07-16T01:46:36;21.70;96.20
66710;DHT22;53624;0.000;0.000;2023-07-16T01:49:05;21.70;95.80
66710;DHT22;53624;0.000;0.000;2023-07-16T01:51:33;21.50;95.10
66710;DHT22;53624;0.000;0.000;2023-07-16T01:54:00;21.60;94.90
66710;DHT22;53624;0.000;0.000;2023-07-16T01:56:30;21.50;94.60
66710;DHT22;53624;0.000;0.000;2023-07-16T01:58:59;21.40;94.60
66710;DHT22;53624;0.000;0.000;2023-07-16T02:01:26;21.60;94.80
66710;DHT22;53624;0.000;0.000;2023-07-16T02:03:54;21.60;94.60
66710;DHT22;53624;0.000;0.000;2023-07-16T02:06:23;21.50;94.70
66710;DHT22;53624;0.000;0.000;2023-07-16T02:08:50;21.50;94.40
66710;DHT22;53624;0.000;0.000;2023-07-16T02:11:18;21.50;94.20
66710;DHT22;53624;0.000;0.000;2023-07-16T02:13:48;21.50;93.90
66710;DHT22;53624;0.000;0.000;2023-07-16T02:16:15;21.40;94.50
66710;DHT22;53624;0.000;0.000;2023-07-16T02:18:42;21.40;94.40
66710;DHT22;53624;0.000;0.000;2023-07-16T02:21:10;21.40;94.60
66710;DHT22;53624;0.000;0.000;2023-07-16T02:23:39;21.30;95.30
66710;DHT22;53624;0.000;0.000;2023-07-16T02:26:06;21.20;95.00
66710;DHT22;53624;0.000;0.000;2023-07-16T02:28:34;21.30;94.70
66710;DHT22;53624;0.000;0.000;2023-07-16T02:31:01;21.40;94.90
66710;DHT22;53624;0.000;0.000;2023-07-16T02:33:29;21.40;94.60
66710;DHT22;53624;0.000;0.000;2023-07-16T02:35:56;21.40;94.60
66710;DHT22;53624;0.000;0.000;2023-07-16T02:38:24;21.50;94.90
66710;DHT22;53624;0.000;0.000;2023-07-16T02:40:55;21.50;94.80
66710;DHT22;53624;0.000;0.000;2023-07-16T02:43:22;21.40;94.70
66710;DHT22;53624;0.000;0.000;2023-07-16T02:45:50;21.40;94.70
66710;DHT22;53624;0.000;0.000;2023-07-16T02:48:17;21.40;95.50
66710;DHT22;53624;0.000;0.000;2023-07-16T02:50:45;21.20;95.80
66710;DHT22;53624;0.000;0.000;2023-07-16T02:53:12;21.30;95.40
66710;DHT22;53624;0.000;0.000;2023-07-16T02:55:39;21.30;95.70
66710;DHT22;53624;0.000;0.000;2023-07-16T02:58:08;21.30;95.20
66710;DHT22;53624;0.000;0.000;2023-07-16T03:00:36;21.30;95.20
66710;DHT22;53624;0.000;0.000;2023-07-16T03:03:03;21.20;95.40
66710;DHT22;53624;0.000;0.000;2023-07-16T03:05:31;21.20;94.90
66710;DHT22;53624;0.000;0.000;2023-07-16T03:07:58;21.10;94.90
66710;DHT22;53624;0.000;0.000;2023-07-16T03:10:25;21.00;95.60
66710;DHT22;53624;0.000;0.000;2023-07-16T03:12:53;21.00;95.30
66710;DHT22;53624;0.000;0.000;2023-07-16T03:15:23;21.00;95.40
66710;DHT22;53624;0.000;0.000;2023-07-16T03:17:50;21.10;95.30
66710;DHT22;53624;0.000;0.000;2023-07-16T03:20:17;21.10;96.20
66710;DHT22;53624;0.000;0.000;2023-07-16T03:22:45;21.00;96.20
66710;DHT22;53624;0.000;0.000;2023-07-16T03:25:13;20.90;96.70
66710;DHT22;53624;0.000;0.000;2023-07-16T03:27:41;20.90;97.10
66710;DHT22;53624;0.000;0.000;2023-07-16T03:30:09;20.90;96.80
66710;DHT22;53624;0.000;0.000;2023-07-16T03:32:38;20.80;97.30
66710;DHT22;53624;0.000;0.000;2023-07-16T03:35:06;20.70;97.40
66710;DHT22;53624;0.000;0.000;2023-07-16T03:37:34;20.80;97.70
66710;DHT22;53624;0.000;0.000;2023-07-16T03:40:11;20.80;97.70
66710;DHT22;53624;0.000;0.000;2023-07-16T03:42:39;20.90;97.30
66710;DHT22;53624;0.000;0.000;2023-07-16T03:45:07;20.90;97.10
66710;DHT22;53624;0.000;0.000;2023-07-16T03:47:35;20.90;96.70
66710;DHT22;53624;0.000;0.000;2023-07-16T03:50:04;20.80;96.90
66710;DHT22;53624;0.000;0.000;2023-07-16T03:52:32;20.80;97.90
66710;DHT22;53624;0.000;0.000;2023-07-16T03:55:00;20.70;96.90
66710;DHT22;53624;0.000;0.000;2023-07-16T03:57:28;20.90;96.60
66710;DHT22;53624;0.000;0.000;2023-07-16T03:59:56;20.70;97.00
66710;DHT22;53624;0.000;0.000;2023-07-16T04:02:23;20.50;96.70
66710;DHT22;53624;0.000;0.000;2023-07-16T04:04:51;20.50;95.90
66710;DHT22;53624;0.000;0.000;2023-07-16T04:07:20;20.40;96.00
66710;DHT22;53624;0.000;0.000;2023-07-16T04:09:48;20.70;95.70
66710;DHT22;53624;0.000;0.000;2023-07-16T04:12:15;20.60;96.10
66710;DHT22;53624;0.000;0.000;2023-07-16T04:14:42;20.80;96.40
66710;DHT22;53624;0.000;0.000;2023-07-16T04:17:10;20.90;96.10
66710;DHT22;53624;0.000;0.000;2023-07-16T04:19:38;20.80;96.80
66710;DHT22;53624;0.000;0.000;2023-07-16T04:22:05;20.70;96.50
66710;DHT22;53624;0.000;0.000;2023-07-16T04:24:34;20.70;97.60
66710;DHT22;53624;0.000;0.000;2023-07-16T04:27:02;20.80;97.70
66710;DHT22;53624;0.000;0.000;2023-07-16T04:29:30;20.80;98.20
66710;DHT22;53624;0.000;0.000;2023-07-16T04:31:57;20.80;98.40
66710;DHT22;53624;0.000;0.000;2023-07-16T04:34:25;21.00;98.00
66710;DHT22;53624;0.000;0.000;2023-07-16T04:36:52;21.00;97.80
66710;DHT22;53624;0.000;0.000;2023-07-16T04:39:20;21.00;98.50
66710;DHT22;53624;0.000;0.000;2023-07-16T04:41:49;21.00;97.90
66710;DHT22;53624;0.000;0.000;2023-07-16T04:44:16;21.10;98.00
66710;DHT22;53624;0.000;0.000;2023-07-16T04:46:44;21.20;97.10
66710;DHT22;53624;0.000;0.000;2023-07-16T04:49:11;21.30;97.20
66710;DHT22;53624;0.000;0.000;2023-07-16T04:51:39;21.20;97.70
66710;DHT22;53624;0.000;0.000;2023-07-16T04:54:06;21.10;98.50
66710;DHT22;53624;0.000;0.000;2023-07-16T04:56:34;21.00;99.10
66710;DHT22;53624;0.000;0.000;2023-07-16T04:59:03;20.70;99.60
66710;DHT22;53624;0.000;0.000;2023-07-16T05:01:30;20.50;99.80
66710;DHT22;53624;0.000;0.000;2023-07-16T05:03:58;20.50;99.90
66710;DHT22;53624;0.000;0.000;2023-07-16T05:06:25;20.70;99.90
66710;DHT22;53624;0.000;0.000;2023-07-16T05:08:56;20.80;99.80
66710;DHT22;53624;0.000;0.000;2023-07-16T05:11:23;20.80;99.90
66710;DHT22;53624;0.000;0.000;2023-07-16T05:13:51;20.70;99.90
66710;DHT22;53624;0.000;0.000;2023-07-16T05:16:20;20.50;99.90
66710;DHT22;53624;0.000;0.000;2023-07-16T05:18:48;20.40;99.90
66710;DHT22;53624;0.000;0.000;2023-07-16T05:21:15;20.30;99.90
66710;DHT22;53624;0.000;0.000;2023-07-16T05:24:03;20.60;99.90
66710;DHT22;53624;0.000;0.000;2023-07-16T05:26:30;20.60;99.90
66710;DHT22;53624;0.000;0.000;2023-07-16T05:28:59;20.40;99.90
66710;DHT22;53624;0.000;0.000;2023-07-16T05:31:28;20.60;99.90
66710;DHT22;53624;0.000;0.000;2023-07-16T05:34:03;20.70;99.90
66710;DHT22;53624;0.000;0.000;2023-07-16T05:36:31;20.70;99.90
66710;DHT22;53624;0.000;0.000;2023-07-16T05:38:59;20.60;99.20
66710;DHT22;53624;0.000;0.000;2023-07-16T05:41:26;20.50;98.80
66710;DHT22;53624;0.000;0.000;2023-07-16T05:43:54;20.80;99.60
66710;DHT22;53624;0.000;0.000;2023-07-16T05:46:21;20.70;98.60
66710;DHT22;53624;0.000;0.000;2023-07-16T05:48:51;20.90;98.40
66710;DHT22;53624;0.000;0.000;2023-07-16T05:51:18;21.20;98.00
66710;DHT22;53624;0.000;0.000;2023-07-16T05:53:49;21.40;97.70
66710;DHT22;53624;0.000;0.000;2023-07-16T05:56:16;21.50;98.10
66710;DHT22;53624;0.000;0.000;2023-07-16T05:58:44;21.80;97.80
66710;DHT22;53624;0.000;0.000;2023-07-16T06:01:11;22.00;98.10
66710;DHT22;53624;0.000;0.000;2023-07-16T06:03:39;22.10;98.30
66710;DHT22;53624;0.000;0.000;2023-07-16T06:06:09;22.10;98.40
66710;DHT22;53624;0.000;0.000;2023-07-16T06:08:37;22.20;97.60
66710;DHT22;53624;0.000;0.000;2023-07-16T06:11:04;22.40;97.60
66710;DHT22;53624;0.000;0.000;2023-07-16T06:13:32;22.50;97.10
66710;DHT22;53624;0.000;0.000;2023-07-16T06:15:59;22.50;97.40
66710;DHT22;53624;0.000;0.000;2023-07-16T06:18:26;22.50;96.30
66710;DHT22;53624;0.000;0.000;2023-07-16T06:20:54;22.70;96.20
66710;DHT22;53624;0.000;0.000;2023-07-16T06:23:24;22.90;95.80
66710;DHT22;53624;0.000;0.000;2023-07-16T06:25:55;22.90;94.90
66710;DHT22;53624;0.000;0.000;2023-07-16T06:28:23;22.90;95.00
66710;DHT22;53624;0.000;0.000;2023-07-16T06:30:51;22.60;95.40
66710;DHT22;53624;0.000;0.000;2023-07-16T06:33:20;22.60;95.30
66710;DHT22;53624;0.000;0.000;2023-07-16T06:35:48;22.60;95.20
66710;DHT22;53624;0.000;0.000;2023-07-16T06:38:15;22.50;95.10
66710;DHT22;53624;0.000;0.000;2023-07-16T06:40:47;22.80;95.10
66710;DHT22;53624;0.000;0.000;2023-07-16T06:43:15;23.30;93.70
66710;DHT22;53624;0.000;0.000;2023-07-16T06:45:43;23.40;94.40
66710;DHT22;53624;0.000;0.000;2023-07-16T06:48:10;23.50;93.20
66710;DHT22;53624;0.000;0.000;2023-07-16T06:50:38;23.40;93.60
66710;DHT22;53624;0.000;0.000;2023-07-16T06:53:05;23.40;93.10
66710;DHT22;53624;0.000;0.000;2023-07-16T06:55:33;23.00;93.60
66710;DHT22;53624;0.000;0.000;2023-07-16T06:58:04;22.80;93.60
66710;DHT22;53624;0.000;0.000;2023-07-16T07:00:31;22.70;93.90
66710;DHT22;53624;0.000;0.000;2023-07-16T07:03:07;22.70;93.90
66710;DHT22;53624;0.000;0.000;2023-07-16T07:05:34;22.70;94.20
66710;DHT22;53624;0.000;0.000;2023-07-16T07:08:03;22.70;94.10
66710;DHT22;53624;0.000;0.000;2023-07-16T07:10:30;23.30;93.90
66710;DHT22;53624;0.000;0.000;2023-07-16T07:12:58;23.80;92.90
66710;DHT22;53624;0.000;0.000;2023-07-16T07:15:27;24.00;92.50
66710;DHT22;53624;0.000;0.000;2023-07-16T07:17:55;24.10;92.10
66710;DHT22;53624;0.000;0.000;2023-07-16T07:20:22;24.40;91.30
66710;DHT22;53624;0.000;0.000;2023-07-16T07:22:50;24.80;90.90
66710;DHT22;53624;0.000;0.000;2023-07-16T07:25:19;24.90;90.40
66710;DHT22;53624;0.000;0.000;2023-07-16T07:27:46;24.80;90.60
66710;DHT22;53624;0.000;0.000;2023-07-16T07:30:14;24.70;90.80
66710;DHT22;53624;0.000;0.000;2023-07-16T07:32:43;24.50;91.30
66710;DHT22;53624;0.000;0.000;2023-07-16T07:35:10;24.30;91.50
66710;DHT22;53624;0.000;0.000;2023-07-16T07:37:38;25.10;90.20
66710;DHT22;53624;0.000;0.000;2023-07-16T07:40:06;25.40;90.00
66710;DHT22;53624;0.000;0.000;2023-07-16T07:42:33;24.90;90.30
66710;DHT22;53624;0.000;0.000;2023-07-16T07:45:01;24.30;91.30
66710;DHT22;53624;0.000;0.000;2023-07-16T07:47:29;25.70;90.50
66710;DHT22;53624;0.000;0.000;2023-07-16T07:49:58;26.70;88.30
66710;DHT22;53624;0.000;0.000;2023-07-16T07:52:27;27.30;85.60
66710;DHT22;53624;0.000;0.000;2023-07-16T07:54:54;27.30;85.00
66710;DHT22;53624;0.000;0.000;2023-07-16T07:57:22;27.70;84.50
66710;DHT22;53624;0.000;0.000;2023-07-16T07:59:50;27.90;83.60
66710;DHT22;53624;0.000;0.000;2023-07-16T08:02:22;28.00;81.10
66710;DHT22;53624;0.000;0.000;2023-07-16T08:04:51;27.50;83.30
66710;DHT22;53624;0.000;0.000;2023-07-16T08:07:22;27.10;85.50
66710;DHT22;53624;0.000;0.000;2023-07-16T08:09:51;26.60;86.10
66710;DHT22;53624;0.000;0.000;2023-07-16T08:12:19;26.50;88.40
66710;DHT22;53624;0.000;0.000;2023-07-16T08:14:47;26.80;87.60
66710;DHT22;53624;0.000;0.000;2023-07-16T08:17:14;27.10;86.20
66710;DHT22;53624;0.000;0.000;2023-07-16T08:19:42;27.20;86.50
66710;DHT22;53624;0.000;0.000;2023-07-16T08:22:09;27.40;84.50
66710;DHT22;53624;0.000;0.000;2023-07-16T08:24:53;27.40;85.80
66710;DHT22;53624;0.000;0.000;2023-07-16T08:27:20;27.30;84.10
66710;DHT22;53624;0.000;0.000;2023-07-16T08:29:48;27.30;86.10
66710;DHT22;53624;0.000;0.000;2023-07-16T08:32:15;27.60;83.90
66710;DHT22;53624;0.000;0.000;2023-07-16T08:34:43;27.60;84.20
66710;DHT22;53624;0.000;0.000;2023-07-16T08:37:10;27.70;83.50
66710;DHT22;53624;0.000;0.000;2023-07-16T08:39:38;27.50;84.20
66710;DHT22;53624;0.000;0.000;2023-07-16T08:42:08;27.30;84.10
66710;DHT22;53624;0.000;0.000;2023-07-16T08:44:37;27.60;85.20
66710;DHT22;53624;0.000;0.000;2023-07-16T08:47:05;27.30;85.40
66710;DHT22;53624;0.000;0.000;2023-07-16T08:49:33;27.00;88.00
66710;DHT22;53624;0.000;0.000;2023-07-16T08:52:01;26.90;87.10
66710;DHT22;53624;0.000;0.000;2023-07-16T08:54:29;27.00;88.60
66710;DHT22;53624;0.000;0.000;2023-07-16T08:56:56;27.10;88.30
66710;DHT22;53624;0.000;0.000;2023-07-16T08:59:25;27.20;86.80
66710;DHT22;53624;0.000;0.000;2023-07-16T09:01:53;27.10;86.30
66710;DHT22;53624;0.000;0.000;2023-07-16T09:04:21;27.10;87.00
66710;DHT22;53624;0.000;0.000;2023-07-16T09:06:49;27.10;87.00
66710;DHT22;53624;0.000;0.000;2023-07-16T09:09:20;27.40;89.90
66710;DHT22;53624;0.000;0.000;2023-07-16T09:11:48;27.80;85.80
66710;DHT22;53624;0.000;0.000;2023-07-16T09:14:16;27.90;83.00
66710;DHT22;53624;0.000;0.000;2023-07-16T09:16:48;27.70;82.40
66710;DHT22;53624;0.000;0.000;2023-07-16T09:19:17;27.70;86.20
66710;DHT22;53624;0.000;0.000;2023-07-16T09:21:48;27.80;85.00
66710;DHT22;53624;0.000;0.000;2023-07-16T09:24:16;28.00;83.60
66710;DHT22;53624;0.000;0.000;2023-07-16T09:26:49;28.20;85.10
66710;DHT22;53624;0.000;0.000;2023-07-16T09:29:17;28.30;82.20
66710;DHT22;53624;0.000;0.000;2023-07-16T09:31:53;28.50;83.30
66710;DHT22;53624;0.000;0.000;2023-07-16T09:34:21;28.50;80.60
66710;DHT22;53624;0.000;0.000;2023-07-16T09:36:49;28.30;83.30
66710;DHT22;53624;0.000;0.000;2023-07-16T09:39:17;28.40;82.60
66710;DHT22;53624;0.000;0.000;2023-07-16T09:41:46;28.50;81.20
66710;DHT22;53624;0.000;0.000;2023-07-16T09:44:14;28.50;82.00
66710;DHT22;53624;0.000;0.000;2023-07-16T09:46:42;28.40;80.70
66710;DHT22;53624;0.000;0.000;2023-07-16T09:49:11;28.20;83.00
66710;DHT22;53624;0.000;0.000;2023-07-16T09:51:39;28.30;83.30
66710;DHT22;53624;0.000;0.000;2023-07-16T09:54:06;28.40;82.00
66710;DHT22;53624;0.000;0.000;2023-07-16T09:56:35;27.50;82.00
66710;DHT22;53624;0.000;0.000;2023-07-16T09:59:05;27.30;83.40
66710;DHT22;53624;0.000;0.000;2023-07-16T10:01:33;27.80;84.30
66710;DHT22;53624;0.000;0.000;2023-07-16T10:04:11;28.10;85.70
66710;DHT22;53624;0.000;0.000;2023-07-16T10:06:47;28.20;82.90
66710;DHT22;53624;0.000;0.000;2023-07-16T10:12:06;28.50;85.60
66710;DHT22;53624;0.000;0.000;2023-07-16T10:14:39;28.40;85.60
66710;DHT22;53624;0.000;0.000;2023-07-16T10:17:06;28.20;83.30
66710;DHT22;53624;0.000;0.000;2023-07-16T10:19:46;28.20;83.10
66710;DHT22;53624;0.000;0.000;2023-07-16T10:22:14;27.70;84.60
66710;DHT22;53624;0.000;0.000;2023-07-16T10:24:42;27.60;84.60
66710;DHT22;53624;0.000;0.000;2023-07-16T10:27:10;27.80;84.60
66710;DHT22;53624;0.000;0.000;2023-07-16T10:29:40;27.90;85.10
66710;DHT22;53624;0.000;0.000;2023-07-16T10:32:08;27.80;85.40
66710;DHT22;53624;0.000;0.000;2023-07-16T10:34:39;27.90;83.30
66710;DHT22;53624;0.000;0.000;2023-07-16T10:37:09;28.00;87.60
66710;DHT22;53624;0.000;0.000;2023-07-16T10:39:44;28.20;86.40
66710;DHT22;53624;0.000;0.000;2023-07-16T10:42:12;28.00;86.20
66710;DHT22;53624;0.000;0.000;2023-07-16T10:44:39;28.10;87.80
66710;DHT22;53624;0.000;0.000;2023-07-16T10:47:07;28.20;88.70
66710;DHT22;53624;0.000;0.000;2023-07-16T10:49:36;28.20;86.50
66710;DHT22;53624;0.000;0.000;2023-07-16T10:52:03;28.10;86.10
66710;DHT22;53624;0.000;0.000;2023-07-16T10:54:33;28.00;85.40
66710;DHT22;53624;0.000;0.000;2023-07-16T10:57:00;28.20;85.10
66710;DHT22;53624;0.000;0.000;2023-07-16T10:59:28;28.40;88.50
66710;DHT22;53624;0.000;0.000;2023-07-16T11:01:55;28.60;86.30
66710;DHT22;53624;0.000;0.000;2023-07-16T11:04:23;28.40;86.10
66710;DHT22;53624;0.000;0.000;2023-07-16T11:06:50;28.50;84.80
66710;DHT22;53624;0.000;0.000;2023-07-16T11:09:18;28.50;83.20
66710;DHT22;53624;0.000;0.000;2023-07-16T11:11:46;28.50;88.20
66710;DHT22;53624;0.000;0.000;2023-07-16T11:14:14;28.50;85.30
66710;DHT22;53624;0.000;0.000;2023-07-16T11:16:41;28.50;86.70
66710;DHT22;53624;0.000;0.000;2023-07-16T11:19:09;28.50;84.90
66710;DHT22;53624;0.000;0.000;2023-07-16T11:21:37;28.60;87.80
66710;DHT22;53624;0.000;0.000;2023-07-16T11:24:08;28.60;85.00
66710;DHT22;53624;0.000;0.000;2023-07-16T11:26:36;28.60;83.00
66710;DHT22;53624;0.000;0.000;2023-07-16T11:29:13;28.80;82.60
66710;DHT22;53624;0.000;0.000;2023-07-16T11:31:41;28.70;83.00
66710;DHT22;53624;0.000;0.000;2023-07-16T11:34:12;28.60;81.60
66710;DHT22;53624;0.000;0.000;2023-07-16T11:36:39;28.70;81.90
66710;DHT22;53624;0.000;0.000;2023-07-16T11:39:07;28.80;81.80
66710;DHT22;53624;0.000;0.000;2023-07-16T11:41:34;28.70;82.30
66710;DHT22;53624;0.000;0.000;2023-07-16T11:44:02;28.70;85.70
66710;DHT22;53624;0.000;0.000;2023-07-16T11:46:32;28.70;85.30
66710;DHT22;53624;0.000;0.000;2023-07-16T11:49:00;28.80;84.00
66710;DHT22;53624;0.000;0.000;2023-07-16T11:51:27;28.50;81.30
66710;DHT22;53624;0.000;0.000;2023-07-16T11:53:55;28.50;84.10
66710;DHT22;53624;0.000;0.000;2023-07-16T11:56:23;28.80;85.80
66710;DHT22;53624;0.000;0.000;2023-07-16T11:58:50;28.80;81.60
66710;DHT22;53624;0.000;0.000;2023-07-16T12:01:18;28.70;82.80
66710;DHT22;53624;0.000;0.000;2023-07-16T12:03:47;28.80;83.80
66710;DHT22;53624;0.000;0.000;2023-07-16T12:06:14;28.70;90.90
66710;DHT22;53624;0.000;0.000;2023-07-16T12:08:42;28.60;81.90
66710;DHT22;53624;0.000;0.000;2023-07-16T12:11:09;28.60;85.30
66710;DHT22;53624;0.000;0.000;2023-07-16T12:13:37;28.90;84.10
66710;DHT22;53624;0.000;0.000;2023-07-16T12:16:05;28.90;82.80
66710;DHT22;53624;0.000;0.000;2023-07-16T12:18:32;28.60;80.60
66710;DHT22;53624;0.000;0.000;2023-07-16T12:21:01;28.60;79.50
66710;DHT22;53624;0.000;0.000;2023-07-16T12:23:29;28.70;80.20
66710;DHT22;53624;0.000;0.000;2023-07-16T12:25:57;28.80;80.90
66710;DHT22;53624;0.000;0.000;2023-07-16T12:28:24;28.70;79.70
66710;DHT22;53624;0.000;0.000;2023-07-16T12:30:52;28.80;81.80
66710;DHT22;53624;0.000;0.000;2023-07-16T12:33:21;28.90;81.10
66710;DHT22;53624;0.000;0.000;2023-07-16T12:35:48;29.00;81.40
66710;DHT22;53624;0.000;0.000;2023-07-16T12:38:17;29.00;80.70
66710;DHT22;53624;0.000;0.000;2023-07-16T12:40:45;29.00;80.50
66710;DHT22;53624;0.000;0.000;2023-07-16T12:43:12;28.90;82.70
66710;DHT22;53624;0.000;0.000;2023-07-16T12:45:40;28.90;82.60
66710;DHT22;53624;0.000;0.000;2023-07-16T12:48:08;29.00;80.80
66710;DHT22;53624;0.000;0.000;2023-07-16T12:50:36;29.10;80.80
66710;DHT22;53624;0.000;0.000;2023-07-16T12:53:05;28.60;79.30
66710;DHT22;53624;0.000;0.000;2023-07-16T12:55:34;28.70;80.30
66710;DHT22;53624;0.000;0.000;2023-07-16T12:58:01;28.70;82.00
66710;DHT22;53624;0.000;0.000;2023-07-16T13:00:29;28.90;80.80
66710;DHT22;53624;0.000;0.000;2023-07-16T13:02:57;29.00;80.00
66710;DHT22;53624;0.000;0.000;2023-07-16T13:05:24;29.20;80.20
66710;DHT22;53624;0.000;0.000;2023-07-16T13:07:53;29.30;79.90
66710;DHT22;53624;0.000;0.000;2023-07-16T13:10:22;29.20;81.80
66710;DHT22;53624;0.000;0.000;2023-07-16T13:12:55;29.10;81.30
66710;DHT22;53624;0.000;0.000;2023-07-16T13:15:28;29.10;79.80
66710;DHT22;53624;0.000;0.000;2023-07-16T13:18:01;29.00;80.50
66710;DHT22;53624;0.000;0.000;2023-07-16T13:20:33;29.20;83.70
66710;DHT22;53624;0.000;0.000;2023-07-16T13:23:09;29.20;84.20
66710;DHT22;53624;0.000;0.000;2023-07-16T13:25:39;29.40;82.60
66710;DHT22;53624;0.000;0.000;2023-07-16T13:28:08;29.40;81.40
66710;DHT22;53624;0.000;0.000;2023-07-16T13:30:36;29.30;79.50
66710;DHT22;53624;0.000;0.000;2023-07-16T13:33:04;29.30;81.10
66710;DHT22;53624;0.000;0.000;2023-07-16T13:35:32;29.20;81.00
66710;DHT22;53624;0.000;0.000;2023-07-16T13:38:01;28.90;78.90
66710;DHT22;53624;0.000;0.000;2023-07-16T13:40:32;28.90;79.50
66710;DHT22;53624;0.000;0.000;2023-07-16T13:43:02;29.00;80.10
66710;DHT22;53624;0.000;0.000;2023-07-16T13:45:40;29.20;79.50
66710;DHT22;53624;0.000;0.000;2023-07-16T13:48:10;29.30;78.20
66710;DHT22;53624;0.000;0.000;2023-07-16T13:50:44;29.40;79.80
66710;DHT22;53624;0.000;0.000;2023-07-16T13:53:11;29.50;79.00
66710;DHT22;53624;0.000;0.000;2023-07-16T13:55:39;29.30;77.90
66710;DHT22;53624;0.000;0.000;2023-07-16T13:58:10;29.10;78.20
66710;DHT22;53624;0.000;0.000;2023-07-16T14:00:43;29.10;80.30
66710;DHT22;53624;0.000;0.000;2023-07-16T14:03:11;29.20;78.80
66710;DHT22;53624;0.000;0.000;2023-07-16T14:05:41;29.00;77.50
66710;DHT22;53624;0.000;0.000;2023-07-16T14:08:22;29.00;79.20
66710;DHT22;53624;0.000;0.000;2023-07-16T14:10:50;29.00;80.00
66710;DHT22;53624;0.000;0.000;2023-07-16T14:13:19;29.20;80.70
66710;DHT22;53624;0.000;0.000;2023-07-16T14:15:48;29.40;80.70
66710;DHT22;53624;0.000;0.000;2023-07-16T14:18:17;29.40;80.70
66710;DHT22;53624;0.000;0.000;2023-07-16T14:20:45;29.40;80.60
66710;DHT22;53624;0.000;0.000;2023-07-16T14:23:14;29.40;79.80
66710;DHT22;53624;0.000;0.000;2023-07-16T14:25:43;29.60;80.80
66710;DHT22;53624;0.000;0.000;2023-07-16T14:28:12;29.60;80.70
66710;DHT22;53624;0.000;0.000;2023-07-16T14:30:41;29.50;80.10
66710;DHT22;53624;0.000;0.000;2023-07-16T14:33:14;29.50;81.00
66710;DHT22;53624;0.000;0.000;2023-07-16T14:35:44;29.30;80.50
66710;DHT22;53624;0.000;0.000;2023-07-16T14:41:06;29.50;78.10
66710;DHT22;53624;0.000;0.000;2023-07-16T14:43:41;29.50;78.60
66710;DHT22;53624;0.000;0.000;2023-07-16T14:46:20;29.50;80.20
66710;DHT22;53624;0.000;0.000;2023-07-16T14:48:53;29.60;80.30
66710;DHT22;53624;0.000;0.000;2023-07-16T14:51:22;29.70;80.30
66710;DHT22;53624;0.000;0.000;2023-07-16T14:53:51;29.60;78.60
66710;DHT22;53624;0.000;0.000;2023-07-16T14:56:20;29.60;79.70
66710;DHT22;53624;0.000;0.000;2023-07-16T14:58:51;29.70;78.80
66710;DHT22;53624;0.000;0.000;2023-07-16T15:01:20;29.50;77.90
66710;DHT22;53624;0.000;0.000;2023-07-16T15:03:47;29.30;78.60
66710;DHT22;53624;0.000;0.000;2023-07-16T15:06:18;29.30;78.20
66710;DHT22;53624;0.000;0.000;2023-07-16T15:08:49;29.20;78.30
66710;DHT22;53624;0.000;0.000;2023-07-16T15:11:22;29.20;79.60
66710;DHT22;53624;0.000;0.000;2023-07-16T15:13:50;29.20;79.40
66710;DHT22;53624;0.000;0.000;2023-07-16T15:16:26;29.30;80.50
66710;DHT22;53624;0.000;0.000;2023-07-16T15:19:07;29.20;78.80
66710;DHT22;53624;0.000;0.000;2023-07-16T15:21:38;29.20;81.30
66710;DHT22;53624;0.000;0.000;2023-07-16T15:24:06;29.30;81.30
66710;DHT22;53624;0.000;0.000;2023-07-16T15:26:35;29.40;81.40
66710;DHT22;53624;0.000;0.000;2023-07-16T15:29:03;29.30;80.60
66710;DHT22;53624;0.000;0.000;2023-07-16T15:31:34;29.40;80.40
66710;DHT22;53624;0.000;0.000;2023-07-16T15:34:03;29.40;80.50
66710;DHT22;53624;0.000;0.000;2023-07-16T15:36:32;29.40;80.10
66710;DHT22;53624;0.000;0.000;2023-07-16T15:39:12;29.40;79.70
66710;DHT22;53624;0.000;0.000;2023-07-16T15:41:48;29.30;80.20
66710;DHT22;53624;0.000;0.000;2023-07-16T15:44:18;29.20;80.90
66710;DHT22;53624;0.000;0.000;2023-07-16T15:46:50;29.20;81.00
66710;DHT22;53624;0.000;0.000;2023-07-16T15:49:18;29.20;79.80
66710;DHT22;53624;0.000;0.000;2023-07-16T15:51:49;29.10;80.30
66710;DHT22;53624;0.000;0.000;2023-07-16T15:54:34;29.00;82.20
66710;DHT22;53624;0.000;0.000;2023-07-16T15:57:06;28.80;79.40
66710;DHT22;53624;0.000;0.000;2023-07-16T15:59:36;28.80;80.70
66710;DHT22;53624;0.000;0.000;2023-07-16T16:02:09;28.80;81.40
66710;DHT22;53624;0.000;0.000;2023-07-16T16:04:41;28.90;80.70